East Aurora, New York
Current Conditions -  °F | °C
As of 4:54 AM on Thursday 23 Oct 2014 (Local Time) from KBUF Reporting Station
Clear Clear  
Wind Chill:   Ceiling: Unl
Heat Index:   Visibility: 10mi
Dew Point:   Wind: 7mph
Humidity: 89%   Direction: 330°NNW
Pressure: 30.13"   Gusts: NA
Location:  42.77°N, 78.61°W
Report Text: KBUF 230854Z 33006KT 10SM CLR 06/04 A3013 RMK AO2 SLP210 T00610044 58003
Loading
Personal Weather Stations






























Interactive Weather Map
Tropical Storm Tracking
New forecast layout! Learn more

10-Day Weather Forecast

Advertisements
Track Severe Weather on mobile